sensor_id;sensor_type;location;lat;lon;timestamp;P1;durP1;ratioP1;P2;durP2;ratioP2
3297;SDS011;1661;53.572;10.174;2023-04-16T00:00:21;28.93;;;20.63;;
3297;SDS011;1661;53.572;10.174;2023-04-16T00:02:48;27.27;;;18.47;;
3297;SDS011;1661;53.572;10.174;2023-04-16T00:05:15;28.23;;;18.07;;
3297;SDS011;1661;53.572;10.174;2023-04-16T00:07:45;25.20;;;17.67;;
3297;SDS011;1661;53.572;10.174;2023-04-16T00:10:12;31.63;;;20.97;;
3297;SDS011;1661;53.572;10.174;2023-04-16T00:12:40;28.87;;;21.00;;
3297;SDS011;1661;53.572;10.174;2023-04-16T00:15:07;30.00;;;20.77;;
3297;SDS011;1661;53.572;10.174;2023-04-16T00:17:34;34.10;;;22.50;;
3297;SDS011;1661;53.572;10.174;2023-04-16T00:20:04;36.27;;;22.10;;
3297;SDS011;1661;53.572;10.174;2023-04-16T00:22:32;20.70;;;16.00;;
3297;SDS011;1661;53.572;10.174;2023-04-16T00:25:01;33.50;;;21.93;;
3297;SDS011;1661;53.572;10.174;2023-04-16T00:27:27;26.90;;;17.17;;
3297;SDS011;1661;53.572;10.174;2023-04-16T00:29:54;33.60;;;21.17;;
3297;SDS011;1661;53.572;10.174;2023-04-16T00:32:21;32.23;;;19.33;;
3297;SDS011;1661;53.572;10.174;2023-04-16T00:34:48;41.23;;;23.70;;
3297;SDS011;1661;53.572;10.174;2023-04-16T00:37:15;27.67;;;18.13;;
3297;SDS011;1661;53.572;10.174;2023-04-16T00:39:41;23.70;;;17.50;;
3297;SDS011;1661;53.572;10.174;2023-04-16T00:42:10;33.00;;;17.53;;
3297;SDS011;1661;53.572;10.174;2023-04-16T00:44:39;30.70;;;20.30;;
3297;SDS011;1661;53.572;10.174;2023-04-16T00:47:06;21.10;;;15.47;;
3297;SDS011;1661;53.572;10.174;2023-04-16T00:49:33;26.83;;;18.30;;
3297;SDS011;1661;53.572;10.174;2023-04-16T00:52:01;34.57;;;21.43;;
3297;SDS011;1661;53.572;10.174;2023-04-16T00:54:28;26.20;;;18.80;;
3297;SDS011;1661;53.572;10.174;2023-04-16T00:56:59;32.13;;;19.67;;
3297;SDS011;1661;53.572;10.174;2023-04-16T00:59:27;26.03;;;18.87;;
3297;SDS011;1661;53.572;10.174;2023-04-16T01:01:54;22.83;;;15.80;;
3297;SDS011;1661;53.572;10.174;2023-04-16T01:04:21;37.53;;;20.83;;
3297;SDS011;1661;53.572;10.174;2023-04-16T01:06:48;29.03;;;19.27;;
3297;SDS011;1661;53.572;10.174;2023-04-16T01:09:15;22.63;;;17.27;;
3297;SDS011;1661;53.572;10.174;2023-04-16T01:11:42;29.03;;;18.97;;
3297;SDS011;1661;53.572;10.174;2023-04-16T01:14:09;25.70;;;17.70;;
3297;SDS011;1661;53.572;10.174;2023-04-16T01:19:59;23.63;;;17.37;;
3297;SDS011;1661;53.572;10.174;2023-04-16T01:22:27;25.63;;;17.73;;
3297;SDS011;1661;53.572;10.174;2023-04-16T01:24:54;16.80;;;13.30;;
3297;SDS011;1661;53.572;10.174;2023-04-16T01:27:21;21.40;;;15.17;;
3297;SDS011;1661;53.572;10.174;2023-04-16T01:29:47;21.97;;;15.60;;
3297;SDS011;1661;53.572;10.174;2023-04-16T01:32:15;24.80;;;16.47;;
3297;SDS011;1661;53.572;10.174;2023-04-16T01:34:42;22.73;;;16.40;;
3297;SDS011;1661;53.572;10.174;2023-04-16T01:37:08;25.77;;;16.10;;
3297;SDS011;1661;53.572;10.174;2023-04-16T01:39:37;28.93;;;16.63;;
3297;SDS011;1661;53.572;10.174;2023-04-16T01:42:04;29.63;;;19.70;;
3297;SDS011;1661;53.572;10.174;2023-04-16T01:44:31;30.13;;;18.20;;
3297;SDS011;1661;53.572;10.174;2023-04-16T01:46:58;39.93;;;21.60;;
3297;SDS011;1661;53.572;10.174;2023-04-16T01:49:25;29.37;;;18.30;;
3297;SDS011;1661;53.572;10.174;2023-04-16T01:51:52;24.10;;;16.03;;
3297;SDS011;1661;53.572;10.174;2023-04-16T01:54:19;23.63;;;17.00;;
3297;SDS011;1661;53.572;10.174;2023-04-16T01:56:50;23.80;;;18.23;;
3297;SDS011;1661;53.572;10.174;2023-04-16T01:59:20;30.27;;;18.67;;
3297;SDS011;1661;53.572;10.174;2023-04-16T02:01:47;26.33;;;18.30;;
3297;SDS011;1661;53.572;10.174;2023-04-16T02:04:14;22.20;;;16.17;;
3297;SDS011;1661;53.572;10.174;2023-04-16T02:06:41;24.17;;;17.00;;
3297;SDS011;1661;53.572;10.174;2023-04-16T02:09:08;28.10;;;19.00;;
3297;SDS011;1661;53.572;10.174;2023-04-16T02:11:35;26.53;;;18.60;;
3297;SDS011;1661;53.572;10.174;2023-04-16T02:14:11;30.70;;;19.33;;
3297;SDS011;1661;53.572;10.174;2023-04-16T02:16:37;28.50;;;19.43;;
3297;SDS011;1661;53.572;10.174;2023-04-16T02:19:04;26.43;;;19.43;;
3297;SDS011;1661;53.572;10.174;2023-04-16T02:21:31;25.43;;;18.23;;
3297;SDS011;1661;53.572;10.174;2023-04-16T02:23:58;26.57;;;19.07;;
3297;SDS011;1661;53.572;10.174;2023-04-16T02:26:25;25.63;;;18.13;;
3297;SDS011;1661;53.572;10.174;2023-04-16T02:28:53;26.30;;;15.80;;
3297;SDS011;1661;53.572;10.174;2023-04-16T02:31:21;23.37;;;15.07;;
3297;SDS011;1661;53.572;10.174;2023-04-16T02:33:48;26.90;;;16.73;;
3297;SDS011;1661;53.572;10.174;2023-04-16T02:36:15;28.93;;;19.90;;
3297;SDS011;1661;53.572;10.174;2023-04-16T02:38:41;27.53;;;17.50;;
3297;SDS011;1661;53.572;10.174;2023-04-16T02:41:08;32.40;;;19.50;;
3297;SDS011;1661;53.572;10.174;2023-04-16T02:43:35;29.03;;;20.60;;
3297;SDS011;1661;53.572;10.174;2023-04-16T02:46:02;26.13;;;19.47;;
3297;SDS011;1661;53.572;10.174;2023-04-16T02:48:30;33.20;;;22.03;;
3297;SDS011;1661;53.572;10.174;2023-04-16T02:50:57;23.73;;;15.77;;
3297;SDS011;1661;53.572;10.174;2023-04-16T02:53:24;24.37;;;17.33;;
3297;SDS011;1661;53.572;10.174;2023-04-16T02:55:50;23.43;;;16.10;;
3297;SDS011;1661;53.572;10.174;2023-04-16T02:58:18;29.97;;;19.10;;
3297;SDS011;1661;53.572;10.174;2023-04-16T03:00:45;33.00;;;18.20;;
3297;SDS011;1661;53.572;10.174;2023-04-16T03:03:12;28.87;;;19.60;;
3297;SDS011;1661;53.572;10.174;2023-04-16T03:05:40;35.17;;;22.27;;
3297;SDS011;1661;53.572;10.174;2023-04-16T03:08:08;25.17;;;19.53;;
3297;SDS011;1661;53.572;10.174;2023-04-16T03:10:35;28.10;;;20.00;;
3297;SDS011;1661;53.572;10.174;2023-04-16T03:13:02;24.67;;;18.10;;
3297;SDS011;1661;53.572;10.174;2023-04-16T03:15:29;24.50;;;16.33;;
3297;SDS011;1661;53.572;10.174;2023-04-16T03:17:56;28.87;;;19.60;;
3297;SDS011;1661;53.572;10.174;2023-04-16T03:20:23;28.03;;;20.77;;
3297;SDS011;1661;53.572;10.174;2023-04-16T03:22:51;35.50;;;20.00;;
3297;SDS011;1661;53.572;10.174;2023-04-16T03:25:18;23.77;;;18.23;;
3297;SDS011;1661;53.572;10.174;2023-04-16T03:27:45;28.40;;;20.20;;
3297;SDS011;1661;53.572;10.174;2023-04-16T03:30:12;21.07;;;16.30;;
3297;SDS011;1661;53.572;10.174;2023-04-16T03:32:40;28.80;;;20.37;;
3297;SDS011;1661;53.572;10.174;2023-04-16T03:35:07;35.80;;;20.20;;
3297;SDS011;1661;53.572;10.174;2023-04-16T03:37:35;30.20;;;20.70;;
3297;SDS011;1661;53.572;10.174;2023-04-16T03:40:03;28.10;;;21.60;;
3297;SDS011;1661;53.572;10.174;2023-04-16T03:42:31;20.03;;;15.70;;
3297;SDS011;1661;53.572;10.174;2023-04-16T03:44:58;24.73;;;17.37;;
3297;SDS011;1661;53.572;10.174;2023-04-16T03:47:24;28.37;;;19.43;;
3297;SDS011;1661;53.572;10.174;2023-04-16T03:49:51;26.87;;;20.03;;
3297;SDS011;1661;53.572;10.174;2023-04-16T03:52:20;30.30;;;21.47;;
3297;SDS011;1661;53.572;10.174;2023-04-16T03:54:47;35.33;;;20.60;;
3297;SDS011;1661;53.572;10.174;2023-04-16T03:57:15;31.53;;;19.90;;
3297;SDS011;1661;53.572;10.174;2023-04-16T03:59:42;35.87;;;21.60;;
3297;SDS011;1661;53.572;10.174;2023-04-16T04:02:09;30.20;;;18.40;;
3297;SDS011;1661;53.572;10.174;2023-04-16T04:04:35;30.63;;;21.77;;
3297;SDS011;1661;53.572;10.174;2023-04-16T04:07:02;39.30;;;24.13;;
3297;SDS011;1661;53.572;10.174;2023-04-16T04:09:29;31.07;;;21.03;;
3297;SDS011;1661;53.572;10.174;2023-04-16T04:11:58;34.03;;;23.53;;
3297;SDS011;1661;53.572;10.174;2023-04-16T04:14:28;31.00;;;18.13;;
3297;SDS011;1661;53.572;10.174;2023-04-16T04:16:55;34.53;;;22.77;;
3297;SDS011;1661;53.572;10.174;2023-04-16T04:19:22;32.73;;;20.97;;
3297;SDS011;1661;53.572;10.174;2023-04-16T04:21:48;29.53;;;19.00;;
3297;SDS011;1661;53.572;10.174;2023-04-16T04:24:15;33.00;;;20.40;;
3297;SDS011;1661;53.572;10.174;2023-04-16T04:26:42;25.83;;;17.40;;
3297;SDS011;1661;53.572;10.174;2023-04-16T04:29:09;30.10;;;21.37;;
3297;SDS011;1661;53.572;10.174;2023-04-16T04:31:37;39.33;;;22.80;;
3297;SDS011;1661;53.572;10.174;2023-04-16T04:34:04;31.10;;;19.83;;
3297;SDS011;1661;53.572;10.174;2023-04-16T04:36:31;31.70;;;22.30;;
3297;SDS011;1661;53.572;10.174;2023-04-16T04:38:57;32.07;;;22.43;;
3297;SDS011;1661;53.572;10.174;2023-04-16T04:41:30;24.50;;;18.43;;
3297;SDS011;1661;53.572;10.174;2023-04-16T04:43:57;27.50;;;20.43;;
3297;SDS011;1661;53.572;10.174;2023-04-16T04:46:23;38.03;;;24.17;;
3297;SDS011;1661;53.572;10.174;2023-04-16T04:48:51;32.60;;;21.07;;
3297;SDS011;1661;53.572;10.174;2023-04-16T04:51:18;37.80;;;26.57;;
3297;SDS011;1661;53.572;10.174;2023-04-16T04:53:45;30.97;;;20.50;;
3297;SDS011;1661;53.572;10.174;2023-04-16T04:56:12;38.37;;;22.90;;
3297;SDS011;1661;53.572;10.174;2023-04-16T04:58:39;34.90;;;23.57;;
3297;SDS011;1661;53.572;10.174;2023-04-16T05:01:05;29.10;;;21.47;;
3297;SDS011;1661;53.572;10.174;2023-04-16T05:03:32;33.20;;;21.87;;
3297;SDS011;1661;53.572;10.174;2023-04-16T05:06:00;46.73;;;26.13;;
3297;SDS011;1661;53.572;10.174;2023-04-16T05:08:27;28.60;;;20.87;;
3297;SDS011;1661;53.572;10.174;2023-04-16T05:10:54;30.83;;;20.60;;
3297;SDS011;1661;53.572;10.174;2023-04-16T05:13:21;36.67;;;25.70;;
3297;SDS011;1661;53.572;10.174;2023-04-16T05:15:48;33.07;;;23.47;;
3297;SDS011;1661;53.572;10.174;2023-04-16T05:18:15;33.73;;;23.50;;
3297;SDS011;1661;53.572;10.174;2023-04-16T05:20:42;33.57;;;22.40;;
3297;SDS011;1661;53.572;10.174;2023-04-16T05:23:10;44.57;;;25.27;;
3297;SDS011;1661;53.572;10.174;2023-04-16T05:25:37;35.37;;;25.47;;
3297;SDS011;1661;53.572;10.174;2023-04-16T05:28:04;39.50;;;24.67;;
3297;SDS011;1661;53.572;10.174;2023-04-16T05:30:30;35.43;;;25.40;;
3297;SDS011;1661;53.572;10.174;2023-04-16T05:32:57;35.37;;;24.77;;
3297;SDS011;1661;53.572;10.174;2023-04-16T05:35:24;34.13;;;23.87;;
3297;SDS011;1661;53.572;10.174;2023-04-16T05:37:51;32.63;;;23.70;;
3297;SDS011;1661;53.572;10.174;2023-04-16T05:40:19;30.10;;;21.87;;
3297;SDS011;1661;53.572;10.174;2023-04-16T05:42:46;34.80;;;25.77;;
3297;SDS011;1661;53.572;10.174;2023-04-16T05:45:13;26.87;;;21.30;;
3297;SDS011;1661;53.572;10.174;2023-04-16T05:47:40;35.37;;;24.03;;
3297;SDS011;1661;53.572;10.174;2023-04-16T05:50:07;39.47;;;26.50;;
3297;SDS011;1661;53.572;10.174;2023-04-16T05:52:34;37.40;;;23.90;;
3297;SDS011;1661;53.572;10.174;2023-04-16T05:55:01;36.50;;;23.97;;
3297;SDS011;1661;53.572;10.174;2023-04-16T05:57:29;28.20;;;19.97;;
3297;SDS011;1661;53.572;10.174;2023-04-16T05:59:56;30.80;;;21.70;;
3297;SDS011;1661;53.572;10.174;2023-04-16T06:02:22;35.70;;;25.07;;
3297;SDS011;1661;53.572;10.174;2023-04-16T06:04:49;35.97;;;23.73;;
3297;SDS011;1661;53.572;10.174;2023-04-16T06:07:16;27.43;;;22.00;;
3297;SDS011;1661;53.572;10.174;2023-04-16T06:09:43;39.83;;;26.47;;
3297;SDS011;1661;53.572;10.174;2023-04-16T06:12:10;29.83;;;19.87;;
3297;SDS011;1661;53.572;10.174;2023-04-16T06:14:38;33.70;;;20.93;;
3297;SDS011;1661;53.572;10.174;2023-04-16T06:17:05;30.27;;;20.37;;
3297;SDS011;1661;53.572;10.174;2023-04-16T06:19:32;39.77;;;25.27;;
3297;SDS011;1661;53.572;10.174;2023-04-16T06:21:59;23.53;;;16.13;;
3297;SDS011;1661;53.572;10.174;2023-04-16T06:24:25;35.90;;;24.60;;
3297;SDS011;1661;53.572;10.174;2023-04-16T06:26:52;43.23;;;26.97;;
3297;SDS011;1661;53.572;10.174;2023-04-16T06:29:19;25.90;;;19.30;;
3297;SDS011;1661;53.572;10.174;2023-04-16T06:31:48;36.53;;;23.57;;
3297;SDS011;1661;53.572;10.174;2023-04-16T06:34:15;40.27;;;25.13;;
3297;SDS011;1661;53.572;10.174;2023-04-16T06:36:41;40.17;;;24.97;;
3297;SDS011;1661;53.572;10.174;2023-04-16T06:39:08;36.10;;;22.73;;
3297;SDS011;1661;53.572;10.174;2023-04-16T06:41:35;35.00;;;24.77;;
3297;SDS011;1661;53.572;10.174;2023-04-16T06:44:02;42.50;;;26.87;;
3297;SDS011;1661;53.572;10.174;2023-04-16T06:46:28;37.87;;;26.10;;
3297;SDS011;1661;53.572;10.174;2023-04-16T06:48:57;38.00;;;24.60;;
3297;SDS011;1661;53.572;10.174;2023-04-16T06:51:24;44.70;;;25.67;;
3297;SDS011;1661;53.572;10.174;2023-04-16T06:53:51;39.77;;;28.10;;
3297;SDS011;1661;53.572;10.174;2023-04-16T06:56:18;34.03;;;21.93;;
3297;SDS011;1661;53.572;10.174;2023-04-16T06:58:44;44.33;;;26.90;;
3297;SDS011;1661;53.572;10.174;2023-04-16T07:01:11;37.13;;;21.90;;
3297;SDS011;1661;53.572;10.174;2023-04-16T07:03:38;34.23;;;23.70;;
3297;SDS011;1661;53.572;10.174;2023-04-16T07:06:06;35.13;;;24.10;;
3297;SDS011;1661;53.572;10.174;2023-04-16T07:08:33;39.77;;;24.07;;
3297;SDS011;1661;53.572;10.174;2023-04-16T07:11:00;29.80;;;22.60;;
3297;SDS011;1661;53.572;10.174;2023-04-16T07:13:27;34.70;;;25.17;;
3297;SDS011;1661;53.572;10.174;2023-04-16T07:15:54;36.27;;;26.40;;
3297;SDS011;1661;53.572;10.174;2023-04-16T07:18:20;35.73;;;23.47;;
3297;SDS011;1661;53.572;10.174;2023-04-16T07:20:47;38.93;;;26.20;;
3297;SDS011;1661;53.572;10.174;2023-04-16T07:23:15;38.00;;;24.30;;
3297;SDS011;1661;53.572;10.174;2023-04-16T07:25:42;29.53;;;20.60;;
3297;SDS011;1661;53.572;10.174;2023-04-16T07:28:09;34.63;;;22.60;;
3297;SDS011;1661;53.572;10.174;2023-04-16T07:30:36;36.37;;;22.10;;
3297;SDS011;1661;53.572;10.174;2023-04-16T07:33:03;41.60;;;22.60;;
3297;SDS011;1661;53.572;10.174;2023-04-16T07:35:30;33.87;;;25.03;;
3297;SDS011;1661;53.572;10.174;2023-04-16T07:37:57;42.23;;;24.03;;
3297;SDS011;1661;53.572;10.174;2023-04-16T07:40:25;36.07;;;23.03;;
3297;SDS011;1661;53.572;10.174;2023-04-16T07:42:52;31.37;;;24.57;;
3297;SDS011;1661;53.572;10.174;2023-04-16T07:45:19;35.63;;;21.80;;
3297;SDS011;1661;53.572;10.174;2023-04-16T07:47:46;32.10;;;19.40;;
3297;SDS011;1661;53.572;10.174;2023-04-16T07:50:13;35.37;;;23.57;;
3297;SDS011;1661;53.572;10.174;2023-04-16T07:52:40;28.00;;;18.80;;
3297;SDS011;1661;53.572;10.174;2023-04-16T07:55:09;25.03;;;18.57;;
3297;SDS011;1661;53.572;10.174;2023-04-16T07:57:37;29.90;;;20.90;;
3297;SDS011;1661;53.572;10.174;2023-04-16T08:00:04;32.70;;;23.00;;
3297;SDS011;1661;53.572;10.174;2023-04-16T08:02:32;35.70;;;23.60;;
3297;SDS011;1661;53.572;10.174;2023-04-16T08:04:59;31.53;;;21.00;;
3297;SDS011;1661;53.572;10.174;2023-04-16T08:07:26;27.20;;;21.83;;
3297;SDS011;1661;53.572;10.174;2023-04-16T08:09:53;30.03;;;21.60;;
3297;SDS011;1661;53.572;10.174;2023-04-16T08:12:19;29.63;;;19.53;;
3297;SDS011;1661;53.572;10.174;2023-04-16T08:14:48;24.17;;;19.40;;
3297;SDS011;1661;53.572;10.174;2023-04-16T08:17:15;27.03;;;22.13;;
3297;SDS011;1661;53.572;10.174;2023-04-16T08:19:42;32.03;;;21.97;;
3297;SDS011;1661;53.572;10.174;2023-04-16T08:22:09;27.50;;;18.60;;
3297;SDS011;1661;53.572;10.174;2023-04-16T08:24:35;27.90;;;18.00;;
3297;SDS011;1661;53.572;10.174;2023-04-16T08:27:02;31.30;;;19.23;;
3297;SDS011;1661;53.572;10.174;2023-04-16T08:29:29;26.17;;;18.27;;
3297;SDS011;1661;53.572;10.174;2023-04-16T08:31:57;37.97;;;20.53;;
3297;SDS011;1661;53.572;10.174;2023-04-16T08:34:24;32.07;;;21.33;;
3297;SDS011;1661;53.572;10.174;2023-04-16T08:36:51;33.47;;;22.33;;
3297;SDS011;1661;53.572;10.174;2023-04-16T08:39:18;31.87;;;21.03;;
3297;SDS011;1661;53.572;10.174;2023-04-16T08:41:45;31.00;;;22.27;;
3297;SDS011;1661;53.572;10.174;2023-04-16T08:44:13;24.53;;;17.70;;
3297;SDS011;1661;53.572;10.174;2023-04-16T08:46:45;30.73;;;21.50;;
3297;SDS011;1661;53.572;10.174;2023-04-16T08:49:14;23.50;;;18.23;;
3297;SDS011;1661;53.572;10.174;2023-04-16T08:51:44;27.17;;;20.00;;
3297;SDS011;1661;53.572;10.174;2023-04-16T08:54:17;20.20;;;16.93;;
3297;SDS011;1661;53.572;10.174;2023-04-16T08:57:00;30.00;;;20.57;;
3297;SDS011;1661;53.572;10.174;2023-04-16T08:59:30;26.77;;;19.77;;
3297;SDS011;1661;53.572;10.174;2023-04-16T09:01:58;20.93;;;17.60;;
3297;SDS011;1661;53.572;10.174;2023-04-16T09:04:27;26.53;;;21.40;;
3297;SDS011;1661;53.572;10.174;2023-04-16T09:06:54;24.00;;;18.10;;
3297;SDS011;1661;53.572;10.174;2023-04-16T09:09:22;29.03;;;19.53;;
3297;SDS011;1661;53.572;10.174;2023-04-16T09:11:51;23.50;;;18.93;;
3297;SDS011;1661;53.572;10.174;2023-04-16T09:14:18;23.40;;;18.43;;
3297;SDS011;1661;53.572;10.174;2023-04-16T09:16:46;22.97;;;17.90;;
3297;SDS011;1661;53.572;10.174;2023-04-16T09:19:13;30.83;;;22.33;;
3297;SDS011;1661;53.572;10.174;2023-04-16T09:21:41;29.77;;;20.73;;
3297;SDS011;1661;53.572;10.174;2023-04-16T09:24:11;22.77;;;17.97;;
3297;SDS011;1661;53.572;10.174;2023-04-16T09:26:39;31.80;;;21.33;;
3297;SDS011;1661;53.572;10.174;2023-04-16T09:29:07;20.43;;;17.77;;
3297;SDS011;1661;53.572;10.174;2023-04-16T09:31:34;22.60;;;15.97;;
3297;SDS011;1661;53.572;10.174;2023-04-16T09:34:01;26.10;;;19.30;;
3297;SDS011;1661;53.572;10.174;2023-04-16T09:36:29;31.40;;;19.07;;
3297;SDS011;1661;53.572;10.174;2023-04-16T09:38:58;23.43;;;19.20;;
3297;SDS011;1661;53.572;10.174;2023-04-16T09:41:26;22.30;;;17.80;;
3297;SDS011;1661;53.572;10.174;2023-04-16T09:43:55;30.30;;;20.23;;
3297;SDS011;1661;53.572;10.174;2023-04-16T09:46:23;24.40;;;19.10;;
3297;SDS011;1661;53.572;10.174;2023-04-16T09:48:50;20.77;;;16.70;;
3297;SDS011;1661;53.572;10.174;2023-04-16T09:51:17;24.17;;;19.10;;
3297;SDS011;1661;53.572;10.174;2023-04-16T09:53:44;23.60;;;17.60;;
3297;SDS011;1661;53.572;10.174;2023-04-16T09:56:12;28.83;;;20.57;;
3297;SDS011;1661;53.572;10.174;2023-04-16T09:58:39;21.27;;;16.77;;
3297;SDS011;1661;53.572;10.174;2023-04-16T10:01:07;21.30;;;16.30;;
3297;SDS011;1661;53.572;10.174;2023-04-16T10:03:35;19.00;;;15.00;;
3297;SDS011;1661;53.572;10.174;2023-04-16T10:06:06;18.60;;;14.80;;
3297;SDS011;1661;53.572;10.174;2023-04-16T10:08:34;22.87;;;16.13;;
3297;SDS011;1661;53.572;10.174;2023-04-16T10:11:01;20.57;;;15.73;;
3297;SDS011;1661;53.572;10.174;2023-04-16T10:13:30;19.03;;;16.33;;
3297;SDS011;1661;53.572;10.174;2023-04-16T10:15:57;20.00;;;17.10;;
3297;SDS011;1661;53.572;10.174;2023-04-16T10:18:24;23.00;;;16.40;;
3297;SDS011;1661;53.572;10.174;2023-04-16T10:20:52;19.27;;;16.10;;
3297;SDS011;1661;53.572;10.174;2023-04-16T10:23:20;19.30;;;14.60;;
3297;SDS011;1661;53.572;10.174;2023-04-16T10:25:47;27.00;;;17.33;;
3297;SDS011;1661;53.572;10.174;2023-04-16T10:28:15;15.93;;;14.20;;
3297;SDS011;1661;53.572;10.174;2023-04-16T10:30:43;22.73;;;17.10;;
3297;SDS011;1661;53.572;10.174;2023-04-16T10:33:17;19.80;;;16.87;;
3297;SDS011;1661;53.572;10.174;2023-04-16T10:35:46;18.47;;;15.20;;
3297;SDS011;1661;53.572;10.174;2023-04-16T10:38:20;18.23;;;15.47;;
3297;SDS011;1661;53.572;10.174;2023-04-16T10:40:48;24.53;;;13.90;;
3297;SDS011;1661;53.572;10.174;2023-04-16T10:43:16;16.37;;;14.30;;
3297;SDS011;1661;53.572;10.174;2023-04-16T10:45:46;21.57;;;16.57;;
3297;SDS011;1661;53.572;10.174;2023-04-16T10:48:13;17.00;;;13.43;;
3297;SDS011;1661;53.572;10.174;2023-04-16T10:50:49;18.50;;;15.17;;
3297;SDS011;1661;53.572;10.174;2023-04-16T10:53:22;15.60;;;12.80;;
3297;SDS011;1661;53.572;10.174;2023-04-16T10:58:39;16.17;;;13.00;;
3297;SDS011;1661;53.572;10.174;2023-04-16T11:01:09;20.23;;;16.73;;
3297;SDS011;1661;53.572;10.174;2023-04-16T11:03:40;19.87;;;16.23;;
3297;SDS011;1661;53.572;10.174;2023-04-16T11:06:11;23.23;;;17.77;;
3297;SDS011;1661;53.572;10.174;2023-04-16T11:08:40;15.20;;;13.03;;
3297;SDS011;1661;53.572;10.174;2023-04-16T11:11:08;20.83;;;15.20;;
3297;SDS011;1661;53.572;10.174;2023-04-16T11:13:35;25.10;;;16.70;;
3297;SDS011;1661;53.572;10.174;2023-04-16T11:16:02;21.60;;;14.80;;
3297;SDS011;1661;53.572;10.174;2023-04-16T11:18:31;19.47;;;15.73;;
3297;SDS011;1661;53.572;10.174;2023-04-16T11:20:58;15.10;;;13.43;;
3297;SDS011;1661;53.572;10.174;2023-04-16T11:23:25;29.37;;;17.40;;
3297;SDS011;1661;53.572;10.174;2023-04-16T11:25:52;18.67;;;16.20;;
3297;SDS011;1661;53.572;10.174;2023-04-16T11:28:31;20.23;;;15.00;;
3297;SDS011;1661;53.572;10.174;2023-04-16T11:30:58;17.50;;;14.20;;
3297;SDS011;1661;53.572;10.174;2023-04-16T11:33:36;19.57;;;16.30;;
3297;SDS011;1661;53.572;10.174;2023-04-16T11:36:03;16.57;;;13.20;;
3297;SDS011;1661;53.572;10.174;2023-04-16T11:38:31;24.37;;;17.33;;
3297;SDS011;1661;53.572;10.174;2023-04-16T11:41:00;15.67;;;13.27;;
3297;SDS011;1661;53.572;10.174;2023-04-16T11:43:27;16.77;;;14.07;;
3297;SDS011;1661;53.572;10.174;2023-04-16T11:45:55;18.07;;;14.27;;
3297;SDS011;1661;53.572;10.174;2023-04-16T11:48:22;19.80;;;16.00;;
3297;SDS011;1661;53.572;10.174;2023-04-16T11:50:55;16.50;;;14.80;;
3297;SDS011;1661;53.572;10.174;2023-04-16T11:53:22;24.70;;;16.63;;
3297;SDS011;1661;53.572;10.174;2023-04-16T11:55:49;17.00;;;14.97;;
3297;SDS011;1661;53.572;10.174;2023-04-16T11:58:15;23.17;;;17.77;;
3297;SDS011;1661;53.572;10.174;2023-04-16T12:00:43;19.93;;;15.33;;
3297;SDS011;1661;53.572;10.174;2023-04-16T12:03:10;18.33;;;15.07;;
3297;SDS011;1661;53.572;10.174;2023-04-16T12:05:37;20.53;;;15.03;;
3297;SDS011;1661;53.572;10.174;2023-04-16T12:08:07;18.17;;;15.07;;
3297;SDS011;1661;53.572;10.174;2023-04-16T12:10:36;15.50;;;13.97;;
3297;SDS011;1661;53.572;10.174;2023-04-16T12:13:17;16.40;;;14.70;;
3297;SDS011;1661;53.572;10.174;2023-04-16T12:15:45;15.23;;;13.60;;
3297;SDS011;1661;53.572;10.174;2023-04-16T12:18:12;14.30;;;12.77;;
3297;SDS011;1661;53.572;10.174;2023-04-16T12:20:40;16.40;;;14.60;;
3297;SDS011;1661;53.572;10.174;2023-04-16T12:23:09;18.53;;;15.73;;
3297;SDS011;1661;53.572;10.174;2023-04-16T12:25:47;21.73;;;15.13;;
3297;SDS011;1661;53.572;10.174;2023-04-16T12:28:25;14.37;;;12.83;;
3297;SDS011;1661;53.572;10.174;2023-04-16T12:30:53;24.23;;;16.80;;
3297;SDS011;1661;53.572;10.174;2023-04-16T12:33:20;25.13;;;17.67;;
3297;SDS011;1661;53.572;10.174;2023-04-16T12:35:46;25.67;;;17.30;;
3297;SDS011;1661;53.572;10.174;2023-04-16T12:38:15;20.90;;;17.03;;
3297;SDS011;1661;53.572;10.174;2023-04-16T12:40:42;23.80;;;17.80;;
3297;SDS011;1661;53.572;10.174;2023-04-16T12:43:09;15.00;;;13.50;;
3297;SDS011;1661;53.572;10.174;2023-04-16T12:45:35;22.57;;;16.20;;
3297;SDS011;1661;53.572;10.174;2023-04-16T12:48:03;26.83;;;18.60;;
3297;SDS011;1661;53.572;10.174;2023-04-16T12:50:30;23.53;;;15.80;;
3297;SDS011;1661;53.572;10.174;2023-04-16T12:52:57;21.50;;;16.20;;
3297;SDS011;1661;53.572;10.174;2023-04-16T12:55:26;26.10;;;18.13;;
3297;SDS011;1661;53.572;10.174;2023-04-16T12:57:52;22.60;;;17.20;;
3297;SDS011;1661;53.572;10.174;2023-04-16T13:00:20;27.33;;;19.53;;
3297;SDS011;1661;53.572;10.174;2023-04-16T13:02:47;20.40;;;14.17;;
3297;SDS011;1661;53.572;10.174;2023-04-16T13:05:13;17.00;;;13.90;;
3297;SDS011;1661;53.572;10.174;2023-04-16T13:07:43;21.17;;;15.17;;
3297;SDS011;1661;53.572;10.174;2023-04-16T13:10:10;18.63;;;16.70;;
3297;SDS011;1661;53.572;10.174;2023-04-16T13:12:38;17.53;;;14.13;;
3297;SDS011;1661;53.572;10.174;2023-04-16T13:15:05;21.27;;;16.40;;
3297;SDS011;1661;53.572;10.174;2023-04-16T13:17:35;21.93;;;14.20;;
3297;SDS011;1661;53.572;10.174;2023-04-16T13:20:02;23.13;;;16.23;;
3297;SDS011;1661;53.572;10.174;2023-04-16T13:22:29;18.07;;;14.50;;
3297;SDS011;1661;53.572;10.174;2023-04-16T13:24:56;19.83;;;14.00;;
3297;SDS011;1661;53.572;10.174;2023-04-16T13:27:24;21.13;;;16.67;;
3297;SDS011;1661;53.572;10.174;2023-04-16T13:29:52;14.47;;;12.97;;
3297;SDS011;1661;53.572;10.174;2023-04-16T13:32:21;19.70;;;15.10;;
3297;SDS011;1661;53.572;10.174;2023-04-16T13:34:47;20.00;;;15.90;;
3297;SDS011;1661;53.572;10.174;2023-04-16T13:37:15;14.20;;;12.70;;
3297;SDS011;1661;53.572;10.174;2023-04-16T13:39:41;19.03;;;14.53;;
3297;SDS011;1661;53.572;10.174;2023-04-16T13:42:09;18.50;;;14.50;;
3297;SDS011;1661;53.572;10.174;2023-04-16T13:44:35;12.43;;;11.20;;
3297;SDS011;1661;53.572;10.174;2023-04-16T13:47:06;18.53;;;13.10;;
3297;SDS011;1661;53.572;10.174;2023-04-16T13:49:33;19.60;;;14.33;;
3297;SDS011;1661;53.572;10.174;2023-04-16T13:52:00;23.10;;;16.53;;
3297;SDS011;1661;53.572;10.174;2023-04-16T13:54:31;22.00;;;17.23;;
3297;SDS011;1661;53.572;10.174;2023-04-16T13:56:58;22.90;;;13.03;;
3297;SDS011;1661;53.572;10.174;2023-04-16T13:59:25;17.30;;;14.10;;
3297;SDS011;1661;53.572;10.174;2023-04-16T14:01:52;21.03;;;17.30;;
3297;SDS011;1661;53.572;10.174;2023-04-16T14:04:20;17.50;;;14.30;;
3297;SDS011;1661;53.572;10.174;2023-04-16T14:06:47;26.90;;;19.80;;
3297;SDS011;1661;53.572;10.174;2023-04-16T14:09:14;23.90;;;18.23;;
3297;SDS011;1661;53.572;10.174;2023-04-16T14:11:41;18.37;;;15.97;;
3297;SDS011;1661;53.572;10.174;2023-04-16T14:14:08;15.27;;;13.63;;
3297;SDS011;1661;53.572;10.174;2023-04-16T14:16:35;22.27;;;16.23;;
3297;SDS011;1661;53.572;10.174;2023-04-16T14:19:02;21.23;;;15.73;;
3297;SDS011;1661;53.572;10.174;2023-04-16T14:21:30;25.50;;;19.47;;
3297;SDS011;1661;53.572;10.174;2023-04-16T14:23:57;30.37;;;21.10;;
3297;SDS011;1661;53.572;10.174;2023-04-16T14:26:23;17.03;;;13.63;;
3297;SDS011;1661;53.572;10.174;2023-04-16T14:28:50;21.97;;;16.50;;
3297;SDS011;1661;53.572;10.174;2023-04-16T14:31:17;16.07;;;13.10;;
3297;SDS011;1661;53.572;10.174;2023-04-16T14:33:44;25.53;;;19.70;;
3297;SDS011;1661;53.572;10.174;2023-04-16T14:36:11;25.73;;;18.10;;
3297;SDS011;1661;53.572;10.174;2023-04-16T14:38:39;29.83;;;20.97;;
3297;SDS011;1661;53.572;10.174;2023-04-16T14:41:07;20.37;;;17.27;;